ADDS METAR Data INFO
IDs: Format: Raw Decoded Include TAF

Data at: 1844 UTC 17 Oct 2017

PASN 171753Z AUTO 01016KT 10SM FEW021 SCT043 OVC110 04/02 A2946 RMK AO2 SLP977 60005 T00440022 53027 TSNO
PASN 171700Z AUTO 36015KT 5SM HZ FEW020 SCT035 BKN060 A2943 RMK AO2 PWINO FZRANO TSNO $
PASN 171653Z AUTO 01016KT 1 1/4SM BR FEW022 SCT032 BKN043 A2942 RMK AO2 SLP964 PWINO FZRANO TSNO $
PASN 171553Z AUTO 02014G19KT 10SM FEW020 SCT027 SCT095 04/02 A2938 RMK AO2 SLP950 T00390022 TSNO
PASN 171550Z AUTO 02013KT 10SM SCT020 BKN027 03/02 A2938 RMK AO2 TSNO
PASN 171453Z AUTO 02015KT 10SM SCT022 SCT028 BKN037 04/02 A2935 RMK AO2 RAE14 SLP938 P0000 60005 T00390022 53014 TSNO
PASN 171414Z AUTO 01006KT 10SM SCT021 SCT028 OVC032 03/02 A2933 RMK AO2 RAE14 P0000 T00280022 TSNO
PASN 171353Z AUTO 03009KT 10SM -RA FEW014 OVC023 02/02 A2932 RMK AO2 PK WND 03026/1327 RAE33B43SNB1254E1258B33E43 SLP930 P0004 T00220017 TSNO
PASN 171336Z AUTO 04018KT 6SM -SN BR SCT016 OVC022 02/01 A2932 RMK AO2 PK WND 03026/1327 RAE33SNB1254E1258B33 P0002 T00220011 TSNO
PASN 171322Z AUTO 03015KT 8SM -RA BKN014 BKN024 OVC046 03/02 A2932 RMK AO2 SNB1254E1258 P0000 T00330022 TSNO
PASN 171253Z AUTO 05012G22KT 10SM -RA FEW021 SCT029 OVC049 03/02 A2930 RMK AO2 RAE39B43SNB25E35 SLP924 P0001 T00330017 TSNO
PASN 171242Z AUTO 06017KT 10SM FEW015 BKN031 OVC049 04/02 A2930 RMK AO2 RAE39SNB25E35 P0001 T00390022 TSNO
PASN 171153Z AUTO 06013G22KT 10SM -RA SCT017 BKN023 OVC049 04/02 A2929 RMK AO2 RAE20B32SNB20E32 SLP918 P0000 60001 7//// T00390022 10044 20033 53007 TSNO
PASN 171128Z AUTO 06015G24KT 9SM -SN SCT016 SCT025 OVC038 03/02 A2928 RMK AO2 RAE20SNB20 P0000 T00330022 TSNO
PASN 171118Z AUTO 07019G23KT 9SM -RA SCT017 BKN025 OVC070 04/02 A2928 RMK AO2 P0000 T00390022 TSNO
PASN 171053Z AUTO 07016KT 10SM -RA SCT015 SCT029 OVC042 04/02 A2928 RMK AO2 PK WND 06028/0959 SLP915 P0000 T00390022 TSNO
PASN 171038Z AUTO 07015G22KT 10SM -RA SCT015 OVC037 04/02 A2928 RMK AO2 PK WND 06028/0959 P0000 T00390022 TSNO
PASN 171026Z AUTO 07018G25KT 10SM -RA BKN015 OVC034 04/02 A2927 RMK AO2 PK WND 06028/0959 P0000 T00390022 TSNO
PASN 170953Z AUTO 08018G26KT 8SM -RA BKN013 BKN024 OVC033 04/03 A2927 RMK AO2 PK WND 07026/0906 SLP911 P0000 T00390028 TSNO
PASN 170900Z AUTO 07019G27KT 10SM -RA SCT013 BKN018 OVC045 04/02 A2926 RMK AO2 P0000 T00390022 TSNO
PASN 170853Z AUTO 07022G27KT 10SM -RA BKN013 BKN020 OVC035 04/03 A2926 RMK AO2 PK WND 08029/0827 SLP910 P0001 60001 T00390028 400671011 56015 TSNO
PASN 170844Z AUTO 07018G26KT 10SM -RA SCT013 BKN018 OVC035 04/03 A2926 RMK AO2 PK WND 08029/0827 P0001 T00390028 TSNO
PASN 170753Z AUTO 08018KT 9SM -RA BKN012 OVC021 04/03 A2927 RMK AO2 PK WND 08029/0714 SLP913 P0000 T00390028 TSNO
PASN 170733Z AUTO 07018G27KT 10SM -RA BKN014 BKN023 OVC033 04/03 A2928 RMK AO2 PK WND 08029/0714 P0000 T00390028 TSNO
PASN 170653Z AUTO 07019G25KT 10SM -RA FEW017 SCT025 OVC049 04/02 A2929 RMK AO2 PK WND 08028/0614 SLP918 P0000 T00440022 TSNO
PASN 170553Z AUTO 10016KT 10SM -RA FEW020 OVC030 04/02 A2931 RMK AO2 PK WND 09028/0540 SLP925 P0001 60001 T00440022 10067 20039 56018 TSNO
PASN 170551Z AUTO 09015KT 10SM -RA FEW020 OVC030 04/02 A2931 RMK AO2 PK WND 09028/0540 P0001 TSNO
PASN 170453Z AUTO 12015G24KT 10SM -RA FEW013 BKN024 OVC045 05/02 A2933 RMK AO2 RAB06E16B17 SLP932 P0000 T00500022 TSNO
PASN 170416Z AUTO 09017G24KT 10SM BKN023 BKN029 OVC036 06/02 A2934 RMK AO2 RAB06E16 P0000 T00560022 TSNO
PASN 170408Z AUTO 09018KT 10SM -RA SCT021 BKN031 OVC100 06/02 A2935 RMK AO2 RAB06 P0000 T00560022 TSNO
PASN 170401Z AUTO 09018KT 10SM BKN021 BKN031 BKN100 06/02 A2935 RMK AO2 T00560022 TSNO
PASN 170353Z AUTO 09017KT 10SM SCT021 BKN031 BKN100 06/02 A2936 RMK AO2 SLP942 T00560022 TSNO
PASN 170342Z AUTO 10015KT 10SM FEW018 SCT023 BKN030 06/02 A2936 RMK AO2 T00560022 TSNO
PASN 170253Z AUTO 11015KT 10SM SCT024 BKN029 BKN036 06/02 A2940 RMK AO2 SLP956 T00560017 56031 TSNO
PASN 170248Z AUTO 11015KT 10SM FEW022 SCT027 BKN036 06/02 A2940 RMK AO2 TSNO
PASN 170232Z AUTO 12015KT 10SM SCT022 BKN029 OVC034 06/02 A2942 RMK AO2 T00560022 TSNO
PASN 170224Z AUTO 11015KT 10SM SCT022 BKN035 OVC095 06/02 A2942 RMK AO2 T00560022 TSNO
PASN 170216Z AUTO 12015KT 10SM SCT022 BKN029 OVC100 06/02 A2943 RMK AO2 T00560022 TSNO
PASN 170153Z AUTO 12016KT 10SM SCT024 BKN031 OVC090 06/02 A2945 RMK AO2 SLP973 T00560022 TSNO
PASN 170053Z AUTO 13013KT 10SM SCT024 SCT030 BKN040 06/02 A2949 RMK AO2 SLP986 T00560017 TSNO
PASN 162353Z AUTO 14014KT 10SM FEW022 FEW031 07/02 A2953 RMK AO2 SLP001 6//// T00670022 10067 21006 58038 TSNO
PASN 162253Z AUTO 16011KT 10SM FEW023 SCT031 06/02 A2958 RMK AO2 SLP018 T00560022 TSNO PNO $
PASN 162153Z AUTO 17011KT 10SM FEW025 SCT033 06/02 A2961 RMK AO2 SLP028 T00560017 TSNO
PASN 162053Z AUTO 17010KT 10SM FEW029 BKN039 05/02 A2964 RMK AO2 SLP038 T00500017 58016 TSNO
PASN 161953Z AUTO 19009KT 10SM FEW025 FEW030 BKN041 04/02 A2966 RMK AO2 SLP046 T00440017 TSNO
PASN 161945Z AUTO 20010KT 10SM SCT024 BKN032 OVC041 05/02 A2967 RMK AO2 T00500017 TSNO
PASN 161926Z AUTO 18011KT 10SM BKN024 BKN030 OVC035 04/01 A2967 RMK AO2 T00390011 TSNO
PASN 161853Z AUTO 20007KT 10SM FEW035 BKN046 02/01 A2968 RMK AO2 SLP050 T00220011 TSNO
PASN 161753Z AUTO 00000KT 10SM FEW024 BKN033 M01/M01 A2969 RMK AO2 SLP054 60004 T10061006 10028 21011 55011 TSNO
PASN 161653Z AUTO 00000KT 10SM FEW027 SCT038 01/00 A2969 RMK AO2 RAE09 SLP054 P0002 T00060000 TSNO
PASN 161617Z AUTO 00000KT 10SM SCT025 SCT035 BKN046 01/01 A2969 RMK AO2 RAE09 P0002 T00110011 TSNO
PASN 161553Z AUTO 27011G16KT 7SM -RA FEW018 BKN025 02/01 A2971 RMK AO2 UPB42E49RAB49 SLP063 P0002 T00170006 TSNO
PASN 161453Z AUTO 26008KT 10SM FEW026 01/M01 A2972 RMK AO2 SLP065 60000 T00111006 55003 TSNO
PASN 161353Z AUTO 28005KT 10SM FEW029 FEW034 00/M01 A2972 RMK AO2 RAE1256 SLP064 P0000 T00001006 TSNO
PASN 161253Z AUTO 31005KT 9SM -RA SCT039 01/01 A2973 RMK AO2 RAB00E17B47 SLP067 P0000 T00110006 TSNO
PASN 161153Z AUTO 26013KT 10SM FEW021 SCT027 SCT032 03/01 A2973 RMK AO2 RAB22E32 SLP068 P0000 60000 70007 T00280011 10028 20000 51010 TSNO
PASN 161053Z AUTO 25009KT 10SM FEW027 SCT038 02/01 A2972 RMK AO2 RAE0958B19E28 SLP065 P0000 T00220006 TSNO
PASN 160953Z AUTO 27007KT 10SM -RA SCT025 BKN033 BKN041 01/00 A2971 RMK AO2 RAB49 SLP062 P0000 T00110000 TSNO
PASN 160853Z AUTO 29007KT 10SM CLR 01/M01 A2970 RMK AO2 SLP058 60000 T00061006 400780000 53016 TSNO
PASN 160753Z AUTO 28007KT 10SM FEW027 02/01 A2968 RMK AO2 RAB13E27 SLP052 P0000 T00170006 TSNO
PASN 160653Z AUTO 28006KT 10SM CLR 01/M01 A2967 RMK AO2 SLP048 T00111006 TSNO